Sea Drift — WDC2818 — position and weather

sailwx.info

Track history (hours):
 
Tides and Currents Weather Stations Pressure Air Temp Water Temp Dewpoint Dewpoint Depression Visibility Wind Speed Wind Dir Waves Ship Positions

Sea Drift

Owner: Marquette Transportation Company Gulf-Inland, LLC, Jefferson, LA. More information available from US FCC via Universal Licensing System and Coast Guard Vessel Documentation Center.

Last reported at 2017-May-17 01:37 UTC. Time now 2017-May-25 22:11 UTC.
Position N 29°33' W 090°26'.
Warning: this ship's position is 8 days out of date.

Length 23 m; draft 3 m.

Type: Towing. MMSI: 366998080.

Date/timePositionNaut miles runAvg speedWind from/ knotsBaromVisibWave heightAir tempDewpointWater temp
2017-May-17 01:37N 29°33' W 090°26'3 2.2
2017-May-17 00:22N 29°34' W 090°29'2 6.4
2017-May-17 00:00N 29°34' W 090°32'3 6.3
2017-May-16 23:30N 29°35' W 090°35'3 5.7
2017-May-16 23:00N 29°35' W 090°38'0 0.5
2017-May-16 22:30N 29°35' W 090°39'0 0.0
2017-May-16 22:00N 29°35' W 090°39'1 3.0
2017-May-16 21:30N 29°36' W 090°40'2 4.2
2017-May-16 21:00N 29°37' W 090°42'2 4.3
2017-May-16 20:30N 29°35' W 090°43'1 1.5
2017-May-16 20:00N 29°34' W 090°44'0 0.0
2017-May-16 19:30N 29°34' W 090°44'0 0.0
2017-May-16 19:00N 29°34' W 090°44'0 0.0
2017-May-16 18:30N 29°34' W 090°44'0 0.2
2017-May-16 18:00N 29°34' W 090°44'0 0.0
2017-May-16 17:30N 29°34' W 090°44'0 0.1
2017-May-16 17:00N 29°34' W 090°44'0 0.0
2017-May-16 16:30N 29°34' W 090°44'0 0.1
2017-May-16 16:00N 29°34' W 090°43'0 0.0
2017-May-16 15:30N 29°34' W 090°43'0 0.2
2017-May-16 15:00N 29°34' W 090°44'0 0.1
2017-May-16 14:30N 29°34' W 090°44'0 0.1
2017-May-16 13:30N 29°34' W 090°44'2 4.3
2017-May-16 13:00N 29°33' W 090°46'3 6.7
2017-May-16 12:30N 29°32' W 090°49'4 6.7
2017-May-16 11:57N 29°33' W 090°54'3 7.3
2017-May-16 11:30N 29°34' W 090°57'112 5.7
2017-May-15 15:47N 29°56' W 093°03'2 5.3
2017-May-15 15:30N 29°56' W 093°05'3 6.3
2017-May-15 15:00N 29°56' W 093°08'6 6.0
2017-May-15 14:00N 30°00' W 093°13'3 5.3
2017-May-15 13:30N 30°02' W 093°15'3 5.9
2017-May-15 13:00N 30°05' W 093°17'2 3.1
2017-May-15 12:30N 30°06' W 093°18'1 2.2
2017-May-15 12:00N 30°06' W 093°19'3 5.6
2017-May-15 11:30N 30°04' W 093°21'3 5.7
2017-May-15 11:00N 30°04' W 093°25'3 6.8
2017-May-15 10:30N 30°04' W 093°29'3 6.6
2017-May-15 10:00N 30°04' W 093°33'3 6.7
2017-May-15 09:30N 30°04' W 093°36'3 6.5
2017-May-15 09:00N 30°04' W 093°40'3 0.3
2017-May-14 23:37N 30°03' W 093°43'1 4.5
2017-May-14 23:24N 30°03' W 093°42'1 3.4
2017-May-14 23:00N 30°04' W 093°41'2 4.6
2017-May-14 22:30N 30°04' W 093°38'2 4.3
2017-May-14 22:00N 30°04' W 093°35'2 4.2
2017-May-14 21:30N 30°04' W 093°33'2 4.3
2017-May-14 21:00N 30°04' W 093°30'0 0.9
2017-May-14 20:30N 30°04' W 093°30'2 3.9
2017-May-14 20:00N 30°04' W 093°28'2 4.4
2017-May-14 19:30N 30°04' W 093°25'2 3.5
2017-May-14 19:00N 30°04' W 093°23'2 4.0
2017-May-14 18:30N 30°04' W 093°21'2 4.0
2017-May-14 18:00N 30°06' W 093°19'1 2.1
2017-May-14 17:30N 30°06' W 093°18'0 0.1
2017-May-14 17:00N 30°06' W 093°18'0 0.1
2017-May-14 16:30N 30°06' W 093°18'0 0.2
2017-May-14 16:00N 30°06' W 093°18'2 3.5
2017-May-14 15:30N 30°05' W 093°17'0 1.0
2017-May-14 15:00N 30°04' W 093°16'0 0.0
2017-May-14 14:30N 30°04' W 093°16'0 0.0
2017-May-14 13:30N 30°04' W 093°16'0 0.8
2017-May-14 13:00N 30°04' W 093°16'1 2.8
2017-May-14 12:30N 30°03' W 093°16'1 2.8
2017-May-14 12:00N 30°02' W 093°15'2 3.9
2017-May-14 11:30N 29°60' W 093°13'2 3.9
2017-May-14 11:00N 29°59' W 093°12'2 4.6
2017-May-14 10:30N 29°57' W 093°10'2 4.3
2017-May-14 09:59N 29°56' W 093°08'3 4.7
2017-May-14 09:27N 29°56' W 093°05'5 4.8
2017-May-14 08:23N 29°56' W 092°59'107 3.6
2017-May-13 02:52N 29°36' W 090°58'2 4.1
2017-May-13 02:19N 29°34' W 090°56'1 4.4
2017-May-13 02:00N 29°33' W 090°55'3 4.4
2017-May-13 01:21N 29°32' W 090°52'2 4.4
2017-May-13 01:00N 29°32' W 090°50'2 4.4
2017-May-13 00:30N 29°32' W 090°48'2 3.7
2017-May-13 00:00N 29°33' W 090°46'2 3.4
2017-May-12 23:30N 29°34' W 090°44'1 2.3
2017-May-12 23:00N 29°34' W 090°43'0 0.0
2017-May-12 22:30N 29°34' W 090°43'0 0.2
2017-May-12 22:00N 29°34' W 090°43'1 2.4
2017-May-12 21:30N 29°36' W 090°43'1 2.5
2017-May-12 21:00N 29°37' W 090°42'2 3.3
2017-May-12 20:30N 29°36' W 090°40'2 3.3
2017-May-12 20:00N 29°35' W 090°39'2 3.8
2017-May-12 19:30N 29°35' W 090°37'2 3.5
2017-May-12 19:00N 29°34' W 090°35'2 4.0
2017-May-12 18:30N 29°34' W 090°33'2 4.3
2017-May-12 18:00N 29°34' W 090°30'2 4.3
2017-May-12 17:27N 29°33' W 090°28'  
2017-May-07 07:01N 29°56' W 092°56'1 3.9
2017-May-07 06:50N 29°56' W 092°57'1 4.0
2017-May-07 06:30N 29°56' W 092°58'2 3.0
2017-May-07 06:00N 29°56' W 093°00'2 4.2
2017-May-07 05:30N 29°56' W 093°02'2 4.1
2017-May-07 05:00N 29°56' W 093°05'2 4.1
2017-May-07 04:30N 29°56' W 093°07'2 4.1
2017-May-07 04:00N 29°56' W 093°10'2 4.1
2017-May-07 03:30N 29°58' W 093°11'2 4.2
2017-May-07 03:00N 29°59' W 093°13'2 3.9
2017-May-07 02:30N 30°01' W 093°14'1 1.9
2017-May-07 02:00N 30°02' W 093°14'  
Track history (hours):
 
Tides and Currents Weather Stations Pressure Air Temp Water Temp Dewpoint Dewpoint Depression Visibility Wind Speed Wind Dir Waves Ship Positions

Sea Drift

Owner: Marquette Transportation Company Gulf-Inland, LLC, Jefferson, LA. More information available from US FCC via Universal Licensing System and Coast Guard Vessel Documentation Center.

Last reported at 2017-May-17 01:37 UTC. Time now 2017-May-25 22:11 UTC.
Position N 29°33' W 090°26'.
Warning: this ship's position is 8 days out of date.

Length 23 m; draft 3 m.

Type: Towing. MMSI: 366998080.

Date/timePositionNaut miles runAvg speedWind from/ knotsBaromVisibWave heightAir tempDewpointWater temp
2017-May-17 01:37N 29°33' W 090°26'3 2.2
2017-May-17 00:22N 29°34' W 090°29'2 6.4
2017-May-17 00:00N 29°34' W 090°32'3 6.3
2017-May-16 23:30N 29°35' W 090°35'3 5.7
2017-May-16 23:00N 29°35' W 090°38'0 0.5
2017-May-16 22:30N 29°35' W 090°39'0 0.0
2017-May-16 22:00N 29°35' W 090°39'1 3.0
2017-May-16 21:30N 29°36' W 090°40'2 4.2
2017-May-16 21:00N 29°37' W 090°42'2 4.3
2017-May-16 20:30N 29°35' W 090°43'1 1.5
2017-May-16 20:00N 29°34' W 090°44'0 0.0
2017-May-16 19:30N 29°34' W 090°44'0 0.0
2017-May-16 19:00N 29°34' W 090°44'0 0.0
2017-May-16 18:30N 29°34' W 090°44'0 0.2
2017-May-16 18:00N 29°34' W 090°44'0 0.0
2017-May-16 17:30N 29°34' W 090°44'0 0.1
2017-May-16 17:00N 29°34' W 090°44'0 0.0
2017-May-16 16:30N 29°34' W 090°44'0 0.1
2017-May-16 16:00N 29°34' W 090°43'0 0.0
2017-May-16 15:30N 29°34' W 090°43'0 0.2
2017-May-16 15:00N 29°34' W 090°44'0 0.1
2017-May-16 14:30N 29°34' W 090°44'0 0.1
2017-May-16 13:30N 29°34' W 090°44'2 4.3
2017-May-16 13:00N 29°33' W 090°46'3 6.7
2017-May-16 12:30N 29°32' W 090°49'4 6.7
2017-May-16 11:57N 29°33' W 090°54'3 7.3
2017-May-16 11:30N 29°34' W 090°57'112 5.7
2017-May-15 15:47N 29°56' W 093°03'2 5.3
2017-May-15 15:30N 29°56' W 093°05'3 6.3
2017-May-15 15:00N 29°56' W 093°08'6 6.0
2017-May-15 14:00N 30°00' W 093°13'3 5.3
2017-May-15 13:30N 30°02' W 093°15'3 5.9
2017-May-15 13:00N 30°05' W 093°17'2 3.1
2017-May-15 12:30N 30°06' W 093°18'1 2.2
2017-May-15 12:00N 30°06' W 093°19'3 5.6
2017-May-15 11:30N 30°04' W 093°21'3 5.7
2017-May-15 11:00N 30°04' W 093°25'3 6.8
2017-May-15 10:30N 30°04' W 093°29'3 6.6
2017-May-15 10:00N 30°04' W 093°33'3 6.7
2017-May-15 09:30N 30°04' W 093°36'3 6.5
2017-May-15 09:00N 30°04' W 093°40'3 0.3
2017-May-14 23:37N 30°03' W 093°43'1 4.5
2017-May-14 23:24N 30°03' W 093°42'1 3.4
2017-May-14 23:00N 30°04' W 093°41'2 4.6
2017-May-14 22:30N 30°04' W 093°38'2 4.3
2017-May-14 22:00N 30°04' W 093°35'2 4.2
2017-May-14 21:30N 30°04' W 093°33'2 4.3
2017-May-14 21:00N 30°04' W 093°30'0 0.9
2017-May-14 20:30N 30°04' W 093°30'2 3.9
2017-May-14 20:00N 30°04' W 093°28'2 4.4
2017-May-14 19:30N 30°04' W 093°25'2 3.5
2017-May-14 19:00N 30°04' W 093°23'2 4.0
2017-May-14 18:30N 30°04' W 093°21'2 4.0
2017-May-14 18:00N 30°06' W 093°19'1 2.1
2017-May-14 17:30N 30°06' W 093°18'0 0.1
2017-May-14 17:00N 30°06' W 093°18'0 0.1
2017-May-14 16:30N 30°06' W 093°18'0 0.2
2017-May-14 16:00N 30°06' W 093°18'2 3.5
2017-May-14 15:30N 30°05' W 093°17'0 1.0
2017-May-14 15:00N 30°04' W 093°16'0 0.0
2017-May-14 14:30N 30°04' W 093°16'0 0.0
2017-May-14 13:30N 30°04' W 093°16'0 0.8
2017-May-14 13:00N 30°04' W 093°16'1 2.8
2017-May-14 12:30N 30°03' W 093°16'1 2.8
2017-May-14 12:00N 30°02' W 093°15'2 3.9
2017-May-14 11:30N 29°60' W 093°13'2 3.9
2017-May-14 11:00N 29°59' W 093°12'2 4.6
2017-May-14 10:30N 29°57' W 093°10'2 4.3
2017-May-14 09:59N 29°56' W 093°08'3 4.7
2017-May-14 09:27N 29°56' W 093°05'5 4.8
2017-May-14 08:23N 29°56' W 092°59'107 3.6
2017-May-13 02:52N 29°36' W 090°58'2 4.1
2017-May-13 02:19N 29°34' W 090°56'1 4.4
2017-May-13 02:00N 29°33' W 090°55'3 4.4
2017-May-13 01:21N 29°32' W 090°52'2 4.4
2017-May-13 01:00N 29°32' W 090°50'2 4.4
2017-May-13 00:30N 29°32' W 090°48'2 3.7
2017-May-13 00:00N 29°33' W 090°46'2 3.4
2017-May-12 23:30N 29°34' W 090°44'1 2.3
2017-May-12 23:00N 29°34' W 090°43'0 0.0
2017-May-12 22:30N 29°34' W 090°43'0 0.2
2017-May-12 22:00N 29°34' W 090°43'1 2.4
2017-May-12 21:30N 29°36' W 090°43'1 2.5
2017-May-12 21:00N 29°37' W 090°42'2 3.3
2017-May-12 20:30N 29°36' W 090°40'2 3.3
2017-May-12 20:00N 29°35' W 090°39'2 3.8
2017-May-12 19:30N 29°35' W 090°37'2 3.5
2017-May-12 19:00N 29°34' W 090°35'2 4.0
2017-May-12 18:30N 29°34' W 090°33'2 4.3
2017-May-12 18:00N 29°34' W 090°30'2 4.3
2017-May-12 17:27N 29°33' W 090°28'  
2017-May-07 07:01N 29°56' W 092°56'1 3.9
2017-May-07 06:50N 29°56' W 092°57'1 4.0
2017-May-07 06:30N 29°56' W 092°58'2 3.0
2017-May-07 06:00N 29°56' W 093°00'2 4.2
2017-May-07 05:30N 29°56' W 093°02'2 4.1
2017-May-07 05:00N 29°56' W 093°05'2 4.1
2017-May-07 04:30N 29°56' W 093°07'2 4.1
2017-May-07 04:00N 29°56' W 093°10'2 4.1
2017-May-07 03:30N 29°58' W 093°11'2 4.2
2017-May-07 03:00N 29°59' W 093°13'2 3.9
2017-May-07 02:30N 30°01' W 093°14'1 1.9
2017-May-07 02:00N 30°02' W 093°14'  

Dump ship's entire track history